createdAt,value
2018-05-24T00:01:54.384Z,16.90
2018-05-24T00:06:56.913Z,17.58
2018-05-24T00:12:00.210Z,17.80
2018-05-24T00:17:02.710Z,17.10
2018-05-24T00:22:06.019Z,20.30
2018-05-24T00:27:08.534Z,20.83
2018-05-24T00:32:11.056Z,22.30
2018-05-24T00:37:14.179Z,23.27
2018-05-24T00:42:16.698Z,22.00
2018-05-24T00:47:19.241Z,25.45
2018-05-24T00:52:21.792Z,24.58
2018-05-24T00:57:24.354Z,27.77
2018-05-24T01:02:27.820Z,23.03
2018-05-24T01:07:32.024Z,20.83
2018-05-24T01:12:35.340Z,21.77
2018-05-24T01:17:37.877Z,20.30
2018-05-24T01:22:40.428Z,21.12
2018-05-24T01:27:42.983Z,20.33
2018-05-24T01:32:45.529Z,21.30
2018-05-24T01:37:50.663Z,20.30
2018-05-24T01:42:53.234Z,20.25
2018-05-24T01:47:55.785Z,20.10
2018-05-24T01:52:58.319Z,21.00
2018-05-24T01:58:00.841Z,19.10
2018-05-24T02:03:03.357Z,18.23
2018-05-24T02:08:06.683Z,17.90
2018-05-24T02:13:09.191Z,18.95
2018-05-24T02:18:11.768Z,20.23
2018-05-24T02:23:14.368Z,19.73
2018-05-24T02:28:17.771Z,20.70
2018-05-24T02:33:21.241Z,20.00
2018-05-24T02:38:23.805Z,21.23
2018-05-24T02:43:26.626Z,19.52
2018-05-24T02:48:29.178Z,19.90
2018-05-24T02:53:31.716Z,20.15
2018-05-24T02:58:34.304Z,18.00
2018-05-24T03:03:36.852Z,20.07
2018-05-24T03:08:40.674Z,19.77
2018-05-24T03:13:43.184Z,18.30
2018-05-24T03:18:46.867Z,19.73
2018-05-24T03:23:50.183Z,21.70
2018-05-24T03:28:53.496Z,21.73
2018-05-24T03:33:58.697Z,22.00
2018-05-24T03:39:01.231Z,18.90
2018-05-24T03:44:03.790Z,21.20
2018-05-24T03:49:06.311Z,21.87
2018-05-24T03:54:09.637Z,20.77
2018-05-24T04:05:01.775Z,22.10
2018-05-24T04:10:04.312Z,22.93
2018-05-24T04:15:06.864Z,20.52
2018-05-24T04:20:09.367Z,20.20
2018-05-24T04:25:11.915Z,20.62
2018-05-24T04:30:14.441Z,20.70
2018-05-24T04:35:16.945Z,19.43
2018-05-24T04:40:19.433Z,21.40
2018-05-24T04:45:22.052Z,25.35
2018-05-24T04:50:24.526Z,23.98
2018-05-24T04:55:27.071Z,23.33
2018-05-24T05:00:30.348Z,21.30
2018-05-24T05:05:32.858Z,21.17
2018-05-24T05:10:35.360Z,20.25
2018-05-24T05:15:37.888Z,20.33
2018-05-24T05:20:40.437Z,20.67
2018-05-24T05:25:42.965Z,18.40
2018-05-24T05:30:46.272Z,18.58
2018-05-24T05:35:49.588Z,16.83
2018-05-24T05:40:52.833Z,16.15
2018-05-24T05:45:55.352Z,13.53
2018-05-24T05:50:57.887Z,14.60
2018-05-24T05:56:01.142Z,13.77
2018-05-24T06:01:03.641Z,14.00
2018-05-24T06:06:06.182Z,13.18
2018-05-24T06:11:09.427Z,13.50
2018-05-24T06:16:11.899Z,13.13
2018-05-24T06:21:14.389Z,13.13
2018-05-24T06:26:16.903Z,12.50
2018-05-24T06:31:19.443Z,12.07
2018-05-24T06:36:22.739Z,13.80
2018-05-24T06:41:25.238Z,12.97
2018-05-24T06:46:27.718Z,12.88
2018-05-24T06:51:30.319Z,12.63
2018-05-24T06:56:32.808Z,12.95
2018-05-24T07:01:35.327Z,12.97
2018-05-24T07:06:38.608Z,12.98
2018-05-24T07:11:44.727Z,16.67
2018-05-24T07:16:47.244Z,14.10
2018-05-24T07:21:49.742Z,12.32
2018-05-24T07:26:52.267Z,12.70
2018-05-24T07:31:54.767Z,13.20
2018-05-24T07:36:57.256Z,13.70
2018-05-24T07:41:59.796Z,15.30
2018-05-24T07:47:02.276Z,14.70
2018-05-24T07:52:04.842Z,14.18
2018-05-24T07:57:07.316Z,14.50
2018-05-24T08:02:09.828Z,13.40
2018-05-24T08:07:13.299Z,13.63
2018-05-24T08:12:15.798Z,12.70
2018-05-24T08:17:18.288Z,12.85
2018-05-24T08:22:20.806Z,12.75
2018-05-24T08:27:23.310Z,10.80
2018-05-24T08:32:25.833Z,11.50
2018-05-24T08:37:28.334Z,11.43
2018-05-24T08:42:30.838Z,11.13
2018-05-24T08:47:33.334Z,10.65
2018-05-24T08:52:35.832Z,11.00
2018-05-24T08:57:38.351Z,12.00
2018-05-24T09:02:40.901Z,12.93
2018-05-24T09:07:43.466Z,12.10
2018-05-24T09:12:47.970Z,12.30
2018-05-24T09:17:50.467Z,11.10
2018-05-24T09:22:52.965Z,12.02
2018-05-24T09:27:55.512Z,13.60
2018-05-24T09:32:58.054Z,14.17
2018-05-24T09:38:00.600Z,14.90
2018-05-24T09:43:03.104Z,16.00
2018-05-24T09:48:05.627Z,17.00
2018-05-24T09:53:08.180Z,16.85
2018-05-24T09:58:10.675Z,16.50
2018-05-24T10:03:13.184Z,15.88
2018-05-24T10:08:15.716Z,15.73
2018-05-24T10:13:18.290Z,13.77
2018-05-24T10:18:22.643Z,12.93
2018-05-24T10:23:26.173Z,11.40
2018-05-24T10:28:29.484Z,12.07
2018-05-24T10:33:32.816Z,10.90
2018-05-24T10:38:38.185Z,9.05
2018-05-24T10:43:40.712Z,8.98
2018-05-24T10:48:43.379Z,7.70
2018-05-24T10:53:45.938Z,7.32
2018-05-24T10:58:50.365Z,7.60
2018-05-24T11:03:53.047Z,5.97
2018-05-24T11:08:55.577Z,5.90
2018-05-24T11:13:58.849Z,6.00
2018-05-24T11:19:02.903Z,6.57
2018-05-24T11:24:05.498Z,5.80
2018-05-24T11:29:08.767Z,5.80
2018-05-24T11:34:11.948Z,5.80
2018-05-24T11:39:17.889Z,5.30
2018-05-24T11:44:20.787Z,5.15
2018-05-24T11:49:23.604Z,5.50
2018-05-24T11:54:26.888Z,5.00
2018-05-24T11:59:30.193Z,4.80
2018-05-24T12:04:32.799Z,5.40
2018-05-24T12:09:35.395Z,4.50
2018-05-24T12:14:38.332Z,5.30
2018-05-24T12:19:40.842Z,5.00
2018-05-24T12:24:43.339Z,5.10
2018-05-24T12:29:45.855Z,4.68
2018-05-24T12:34:48.352Z,5.00
2018-05-24T12:39:50.876Z,5.10
2018-05-24T12:44:54.169Z,5.00
2018-05-24T12:49:56.676Z,5.40
2018-05-24T12:54:59.198Z,6.10
2018-05-24T13:00:02.738Z,5.00
2018-05-24T13:05:05.256Z,5.30
2018-05-24T13:10:08.129Z,5.65
2018-05-24T13:15:10.703Z,5.70
2018-05-24T13:20:13.237Z,5.60
2018-05-24T13:25:15.762Z,5.70
2018-05-24T13:30:19.068Z,5.07
2018-05-24T13:35:22.343Z,5.80
2018-05-24T13:40:25.020Z,5.50
2018-05-24T13:45:27.524Z,6.00
2018-05-24T13:50:35.192Z,5.30
2018-05-24T13:55:44.019Z,5.00
2018-05-24T14:00:46.600Z,4.95
2018-05-24T14:05:49.956Z,5.00
2018-05-24T14:10:52.636Z,5.07
2018-05-24T14:15:55.963Z,4.00
2018-05-24T14:20:58.529Z,4.25
2018-05-24T14:26:01.103Z,3.90
2018-05-24T14:31:03.664Z,3.80
2018-05-24T14:36:06.783Z,4.00
2018-05-24T14:41:09.267Z,3.72
2018-05-24T14:46:11.778Z,3.60
2018-05-24T14:51:14.473Z,3.70
2018-05-24T14:56:17.472Z,4.05
2018-05-24T15:01:19.969Z,3.72
2018-05-24T15:06:22.478Z,4.12
2018-05-24T15:11:25.878Z,3.70
2018-05-24T15:16:28.397Z,4.20
2018-05-24T15:21:30.927Z,3.85
2018-05-24T15:26:33.460Z,4.00
2018-05-24T15:31:36.092Z,3.83
2018-05-24T15:36:39.976Z,3.80
2018-05-24T15:41:42.533Z,3.60
2018-05-24T15:46:45.038Z,3.80
2018-05-24T15:51:48.316Z,3.55
2018-05-24T15:56:51.675Z,3.97
2018-05-24T16:01:54.193Z,3.95
2018-05-24T16:06:56.740Z,4.20
2018-05-24T16:11:59.228Z,4.00
2018-05-24T16:17:01.755Z,3.90
2018-05-24T16:22:04.265Z,4.10
2018-05-24T16:27:07.115Z,4.30
2018-05-24T16:32:09.652Z,4.50
2018-05-24T16:37:12.154Z,4.20
2018-05-24T16:42:14.671Z,4.30
2018-05-24T16:47:17.923Z,4.10
2018-05-24T16:52:20.434Z,4.90
2018-05-24T16:57:22.953Z,5.57
2018-05-24T17:02:25.452Z,5.05
2018-05-24T17:07:31.040Z,4.22
2018-05-24T17:12:33.591Z,4.55
2018-05-24T17:17:36.080Z,4.05
2018-05-24T17:22:38.591Z,4.40
2018-05-24T17:27:41.133Z,4.00
2018-05-24T17:32:44.686Z,4.00
2018-05-24T17:37:47.275Z,3.70
2018-05-24T17:42:49.754Z,3.70
2018-05-24T17:47:52.243Z,4.00
2018-05-24T17:52:54.763Z,3.90
2018-05-24T17:57:57.310Z,4.90
2018-05-24T18:02:59.821Z,4.90
2018-05-24T18:08:02.374Z,5.40
2018-05-24T18:13:05.652Z,5.10
2018-05-24T18:18:08.220Z,4.80
2018-05-24T18:23:10.743Z,5.33
2018-05-24T18:28:13.262Z,5.70
2018-05-24T18:33:16.534Z,5.87
2018-05-24T18:38:19.062Z,8.25
2018-05-24T18:43:22.324Z,7.27
2018-05-24T18:48:24.863Z,6.60
2018-05-24T18:53:27.410Z,6.47
2018-05-24T18:58:29.895Z,6.80
2018-05-24T19:03:32.368Z,6.68
2018-05-24T19:08:34.895Z,7.32
2018-05-24T19:13:37.611Z,7.00
2018-05-24T19:18:40.153Z,6.90
2018-05-24T19:23:42.674Z,7.20
2018-05-24T19:28:45.164Z,7.20
2018-05-24T19:33:47.631Z,7.35
2018-05-24T19:38:50.151Z,7.70
2018-05-24T19:43:52.679Z,7.30
2018-05-24T19:48:55.323Z,8.40
2018-05-24T19:53:57.859Z,8.98
2018-05-24T19:59:00.363Z,9.50
2018-05-24T20:04:04.118Z,9.50
2018-05-24T20:09:07.842Z,9.60
2018-05-24T20:14:10.655Z,10.67
2018-05-24T20:19:13.430Z,10.65
2018-05-24T20:24:16.300Z,10.88
2018-05-24T20:29:19.248Z,11.10
2018-05-24T20:34:22.034Z,12.23
2018-05-24T20:39:26.533Z,12.13
2018-05-24T20:44:29.084Z,10.95
2018-05-24T20:49:31.598Z,11.73
2018-05-24T20:54:34.217Z,11.05
2018-05-24T20:59:36.692Z,12.60
2018-05-24T21:04:39.204Z,12.00
2018-05-24T21:09:41.813Z,12.23
2018-05-24T21:14:44.305Z,12.77
2018-05-24T21:19:47.099Z,13.57
2018-05-24T21:24:49.671Z,12.65
2018-05-24T21:29:52.305Z,12.75
2018-05-24T21:34:56.413Z,12.95
2018-05-24T21:40:00.024Z,12.70
2018-05-24T21:45:02.641Z,12.52
2018-05-24T21:50:05.173Z,13.10
2018-05-24T21:55:08.693Z,12.35
2018-05-24T22:00:11.211Z,12.60
2018-05-24T22:05:13.738Z,12.63
2018-05-24T22:10:16.896Z,13.60
2018-05-24T22:15:19.407Z,13.77
2018-05-24T22:20:21.885Z,15.00
2018-05-24T22:25:24.452Z,14.80
2018-05-24T22:30:26.954Z,14.27
2018-05-24T22:35:29.423Z,14.33
2018-05-24T22:40:33.702Z,14.35
2018-05-24T22:45:36.219Z,14.13
2018-05-24T22:50:38.712Z,13.85
2018-05-24T22:55:41.215Z,13.70
2018-05-24T23:00:43.718Z,13.90
2018-05-24T23:05:47.026Z,14.45
2018-05-24T23:10:49.516Z,13.40
2018-05-24T23:15:56.589Z,16.52
2018-05-24T23:20:59.063Z,15.00
2018-05-24T23:26:01.553Z,15.80
2018-05-24T23:31:04.047Z,15.20
2018-05-24T23:36:06.543Z,15.50
2018-05-24T23:52:32.159Z,11.02
2018-05-24T23:57:35.703Z,11.38
